Tropical Cyclones
[Index]
Main Index Home Page Stock Weather Photos Extreme Storms Discussion Storm News and Storm Chasing Reports Tropical Cyclones / Hurricanes / Typhoons Weather Data and Links Wild Fires / Bushfires Weather Observation Techniques Weather Picture Catalogue Tornado Pictures and Reports Stock Video Footage and DVDs for sale
Season 1979-1980 Tropical Cyclone BRIAN Track Map
Season 1979-1980 Summaries: [BoM-AU] [JTWC-AU] [JTWC-SIO] [JTWC-SPAC] [JTWC-SH]
<<- Previous TC | JTWC 1979-1980 Season | Next TC ->>

click for intensity scale information  Lat/long Grid: Show Hide

 Date Labels: Show Hide

Joint Typhoon Warning Centre Cyclone Data

Name: BRIAN

19 Jan 1980 12:00 UTC to 25 Jan 1980 12:00 UTC

    date/time    lat    long     hPa   cat  kts
1980-01-19 12   13.3   125.0                  30          
1980-01-19 18   13.7   123.5                  35          
1980-01-20 00   14.0   122.0            1     40          
1980-01-20 06   14.3   120.9            1     50          
1980-01-20 12   14.5   119.5            2     55          
1980-01-20 18   15.2   117.5            2     55          
1980-01-21 00   16.0   115.5            2     60          
1980-01-21 06   16.1   113.5            2     60          
1980-01-21 12   16.2   111.5            2     65          
1980-01-21 18   16.6   110.0            3     75          
1980-01-22 00   17.0   108.8            3     85          
1980-01-22 06   17.4   107.4            3     90          
1980-01-22 12   17.8   106.0            3     90          
1980-01-22 18   17.9   104.5            3     90          
1980-01-23 00   18.0   103.0            3     90          
1980-01-23 06   18.5   101.8            3     90          
1980-01-23 12   19.2   100.8            3     90          
1980-01-23 18   19.9    99.9            3     90          
1980-01-24 00   20.8    99.0            3     85          
1980-01-24 06   21.8    97.1            3     80          
1980-01-24 12   22.8    95.1            2     70          
1980-01-24 18   23.8    94.1            2     65          
1980-01-25 00   24.8    93.5            2     60          
1980-01-25 06   26.2    93.3            2     55          
1980-01-25 12   28.0    93.5            1     50          
Winds are 1-min average.

Tropical cyclone tracks developed by Michael Bath using data from the Joint Typhoon Warning Centre Best Tracks and Google Maps.


[Australian Severe Weather index] [Copyright Notice] [Email Contacts] [Search This Site] [Privacy Policy]
Document: tropical_cyclone_brian.htm Updated: 18 September 2016